sensor_id;sensor_type;location;lat;lon;timestamp;pressure;altitude;pressure_sealevel;temperature;humidity
40954;BME280;26686;50.130;8.710;2024-03-23T00:58:06;99282.28;;;13.31;66.40
40954;BME280;26686;50.130;8.710;2024-03-23T01:03:07;99257.03;;;13.25;66.68
40954;BME280;26686;50.130;8.710;2024-03-23T01:08:07;99238.84;;;13.21;66.59
40954;BME280;26686;50.130;8.710;2024-03-23T01:13:07;99249.19;;;13.24;66.98
40954;BME280;26686;50.130;8.710;2024-03-23T01:18:10;99247.19;;;13.18;67.52
40954;BME280;26686;50.130;8.710;2024-03-23T01:23:11;99239.19;;;13.09;67.71
40954;BME280;26686;50.130;8.710;2024-03-23T01:28:11;99237.66;;;13.07;68.61
40954;BME280;26686;50.130;8.710;2024-03-23T01:33:11;99221.13;;;13.12;69.08
40954;BME280;26686;50.130;8.710;2024-03-23T01:38:12;99217.47;;;13.13;68.01
40954;BME280;26686;50.130;8.710;2024-03-23T01:43:13;99214.78;;;13.13;68.29
40954;BME280;26686;50.130;8.710;2024-03-23T01:48:13;99195.75;;;13.16;68.00
40954;BME280;26686;50.130;8.710;2024-03-23T01:53:14;99182.72;;;13.13;68.23
40954;BME280;26686;50.130;8.710;2024-03-23T01:58:17;99170.22;;;13.05;68.24
40954;BME280;26686;50.130;8.710;2024-03-23T02:03:27;99167.53;;;13.05;68.38
40954;BME280;26686;50.130;8.710;2024-03-23T02:08:29;99143.97;;;12.84;68.93
40954;BME280;26686;50.130;8.710;2024-03-23T02:13:31;99152.00;;;12.92;69.37
40954;BME280;26686;50.130;8.710;2024-03-23T02:18:33;99161.34;;;12.96;69.12
40954;BME280;26686;50.130;8.710;2024-03-23T02:23:34;99140.81;;;12.97;69.50
40954;BME280;26686;50.130;8.710;2024-03-23T02:28:35;99133.47;;;12.99;69.43
40954;BME280;26686;50.130;8.710;2024-03-23T02:33:35;99129.63;;;13.01;70.12
40954;BME280;26686;50.130;8.710;2024-03-23T02:38:38;99109.94;;;12.94;68.90
40954;BME280;26686;50.130;8.710;2024-03-23T02:43:38;99110.28;;;12.91;70.01
40954;BME280;26686;50.130;8.710;2024-03-23T02:48:39;99084.22;;;12.60;69.84
40954;BME280;26686;50.130;8.710;2024-03-23T02:53:39;99091.91;;;12.80;69.67
40954;BME280;26686;50.130;8.710;2024-03-23T02:58:40;99098.56;;;12.67;69.82
40954;BME280;26686;50.130;8.710;2024-03-23T03:03:41;99087.56;;;12.70;69.81
40954;BME280;26686;50.130;8.710;2024-03-23T03:08:42;99096.91;;;12.75;70.39
40954;BME280;26686;50.130;8.710;2024-03-23T03:13:42;99078.72;;;12.78;70.46
40954;BME280;26686;50.130;8.710;2024-03-23T03:18:43;99078.38;;;12.81;70.18
40954;BME280;26686;50.130;8.710;2024-03-23T03:23:46;99094.91;;;12.77;70.08
40954;BME280;26686;50.130;8.710;2024-03-23T03:28:51;99070.88;;;12.77;70.39
40954;BME280;26686;50.130;8.710;2024-03-23T03:33:53;99057.53;;;12.77;69.73
40954;BME280;26686;50.130;8.710;2024-03-23T03:38:53;99052.69;;;12.72;69.72
40954;BME280;26686;50.130;8.710;2024-03-23T03:43:53;99058.19;;;12.70;69.95
40954;BME280;26686;50.130;8.710;2024-03-23T03:48:55;99047.66;;;12.61;69.82
40954;BME280;26686;50.130;8.710;2024-03-23T03:53:56;99052.00;;;12.62;70.14
40954;BME280;26686;50.130;8.710;2024-03-23T03:58:56;99052.84;;;12.62;70.15
40954;BME280;26686;50.130;8.710;2024-03-23T04:03:57;99054.16;;;12.50;70.32
40954;BME280;26686;50.130;8.710;2024-03-23T04:08:57;99062.66;;;12.53;70.66
40954;BME280;26686;50.130;8.710;2024-03-23T04:13:58;99053.50;;;12.48;71.01
40954;BME280;26686;50.130;8.710;2024-03-23T04:18:58;99077.50;;;12.40;71.60
40954;BME280;26686;50.130;8.710;2024-03-23T04:23:59;99094.81;;;12.19;73.02
40954;BME280;26686;50.130;8.710;2024-03-23T04:28:59;99082.91;;;11.97;73.91
40954;BME280;26686;50.130;8.710;2024-03-23T04:34:01;99128.56;;;11.94;75.79
40954;BME280;26686;50.130;8.710;2024-03-23T04:39:02;99115.69;;;11.63;76.64
40954;BME280;26686;50.130;8.710;2024-03-23T04:44:04;99106.72;;;11.64;76.31
40954;BME280;26686;50.130;8.710;2024-03-23T04:49:04;99111.22;;;11.63;76.81
40954;BME280;26686;50.130;8.710;2024-03-23T04:54:05;99066.66;;;10.77;74.12
40954;BME280;26686;50.130;8.710;2024-03-23T04:59:06;99133.19;;;10.59;75.15
40954;BME280;26686;50.130;8.710;2024-03-23T05:04:06;99128.91;;;10.20;73.98
40954;BME280;26686;50.130;8.710;2024-03-23T05:09:07;99143.97;;;10.30;75.20
40954;BME280;26686;50.130;8.710;2024-03-23T05:14:09;99139.75;;;9.81;75.15
40954;BME280;26686;50.130;8.710;2024-03-23T05:19:09;99147.91;;;10.07;74.74
40954;BME280;26686;50.130;8.710;2024-03-23T05:24:10;99178.06;;;9.79;74.56
40954;BME280;26686;50.130;8.710;2024-03-23T05:29:12;99202.50;;;10.02;74.99
40954;BME280;26686;50.130;8.710;2024-03-23T05:34:13;99213.38;;;10.46;74.20
40954;BME280;26686;50.130;8.710;2024-03-23T05:39:14;99225.78;;;10.83;72.46
40954;BME280;26686;50.130;8.710;2024-03-23T05:44:18;99242.66;;;10.74;70.11
40954;BME280;26686;50.130;8.710;2024-03-23T05:49:18;99255.34;;;10.52;71.37
40954;BME280;26686;50.130;8.710;2024-03-23T05:54:19;99266.34;;;10.30;69.77
40954;BME280;26686;50.130;8.710;2024-03-23T05:59:19;99263.28;;;10.24;70.07
40954;BME280;26686;50.130;8.710;2024-03-23T06:04:20;99286.41;;;10.14;70.15
40954;BME280;26686;50.130;8.710;2024-03-23T06:09:21;99307.16;;;10.01;70.17
40954;BME280;26686;50.130;8.710;2024-03-23T06:14:25;99314.25;;;10.10;69.87
40954;BME280;26686;50.130;8.710;2024-03-23T06:19:25;99310.44;;;10.42;69.27
40954;BME280;26686;50.130;8.710;2024-03-23T06:24:28;99308.00;;;10.58;66.31
40954;BME280;26686;50.130;8.710;2024-03-23T06:29:28;99330.50;;;10.17;66.64
40954;BME280;26686;50.130;8.710;2024-03-23T06:34:29;99341.81;;;10.29;65.32
40954;BME280;26686;50.130;8.710;2024-03-23T06:39:30;99364.63;;;10.41;65.71
40954;BME280;26686;50.130;8.710;2024-03-23T06:44:31;99393.34;;;9.98;64.58
40954;BME280;26686;50.130;8.710;2024-03-23T06:49:31;99383.44;;;9.81;65.15
40954;BME280;26686;50.130;8.710;2024-03-23T06:54:32;99401.53;;;9.27;67.69
40954;BME280;26686;50.130;8.710;2024-03-23T06:59:33;99421.94;;;9.26;67.78
40954;BME280;26686;50.130;8.710;2024-03-23T07:04:34;99424.28;;;9.70;65.77
40954;BME280;26686;50.130;8.710;2024-03-23T07:09:35;99421.75;;;9.78;64.83
40954;BME280;26686;50.130;8.710;2024-03-23T07:14:35;99441.34;;;9.97;64.83
40954;BME280;26686;50.130;8.710;2024-03-23T07:19:36;99460.41;;;9.32;65.25
40954;BME280;26686;50.130;8.710;2024-03-23T07:24:36;99479.09;;;9.20;65.87
40954;BME280;26686;50.130;8.710;2024-03-23T07:29:39;99489.31;;;9.66;64.65
40954;BME280;26686;50.130;8.710;2024-03-23T07:34:41;99509.34;;;9.99;62.70
40954;BME280;26686;50.130;8.710;2024-03-23T07:39:45;99523.66;;;10.08;60.92
40954;BME280;26686;50.130;8.710;2024-03-23T07:44:48;99534.41;;;9.97;62.34
40954;BME280;26686;50.130;8.710;2024-03-23T07:49:49;99527.84;;;10.20;61.62
40954;BME280;26686;50.130;8.710;2024-03-23T07:54:52;99540.53;;;9.87;60.74
40954;BME280;26686;50.130;8.710;2024-03-23T07:59:52;99557.56;;;9.65;61.30
40954;BME280;26686;50.130;8.710;2024-03-23T08:04:52;99562.28;;;10.12;62.57
40954;BME280;26686;50.130;8.710;2024-03-23T08:09:53;99563.16;;;10.22;60.48
40954;BME280;26686;50.130;8.710;2024-03-23T08:14:53;99574.66;;;10.52;58.31
40954;BME280;26686;50.130;8.710;2024-03-23T08:19:53;99577.88;;;10.46;59.31
40954;BME280;26686;50.130;8.710;2024-03-23T08:24:54;99589.50;;;10.35;58.93
40954;BME280;26686;50.130;8.710;2024-03-23T08:29:54;99589.25;;;10.68;58.70
40954;BME280;26686;50.130;8.710;2024-03-23T08:34:55;99586.16;;;10.72;58.14
40954;BME280;26686;50.130;8.710;2024-03-23T08:39:55;99605.34;;;11.05;57.61
40954;BME280;26686;50.130;8.710;2024-03-23T08:44:56;99595.38;;;11.17;56.41
40954;BME280;26686;50.130;8.710;2024-03-23T08:49:56;99609.47;;;11.47;56.50
40954;BME280;26686;50.130;8.710;2024-03-23T08:54:58;99588.59;;;11.23;55.43
40954;BME280;26686;50.130;8.710;2024-03-23T08:59:58;99602.00;;;11.41;57.17
40954;BME280;26686;50.130;8.710;2024-03-23T09:04:59;99604.97;;;11.75;55.43
40954;BME280;26686;50.130;8.710;2024-03-23T09:10:06;99609.84;;;11.52;55.95
40954;BME280;26686;50.130;8.710;2024-03-23T09:15:07;99612.41;;;12.19;54.30
40954;BME280;26686;50.130;8.710;2024-03-23T09:20:08;99603.66;;;12.45;52.21
40954;BME280;26686;50.130;8.710;2024-03-23T09:25:09;99616.69;;;12.66;51.88
40954;BME280;26686;50.130;8.710;2024-03-23T09:30:11;99609.66;;;12.83;51.15
40954;BME280;26686;50.130;8.710;2024-03-23T09:35:13;99595.34;;;13.10;49.29
40954;BME280;26686;50.130;8.710;2024-03-23T09:40:13;99611.00;;;13.49;49.93
40954;BME280;26686;50.130;8.710;2024-03-23T09:45:17;99618.81;;;12.98;45.71
40954;BME280;26686;50.130;8.710;2024-03-23T09:50:20;99630.09;;;12.92;46.24
40954;BME280;26686;50.130;8.710;2024-03-23T09:55:20;99620.44;;;12.73;47.39
40954;BME280;26686;50.130;8.710;2024-03-23T10:00:21;99626.50;;;12.29;46.23
40954;BME280;26686;50.130;8.710;2024-03-23T10:05:22;99623.41;;;12.06;48.32
40954;BME280;26686;50.130;8.710;2024-03-23T10:10:25;99635.19;;;12.03;46.14
40954;BME280;26686;50.130;8.710;2024-03-23T10:15:25;99629.13;;;12.11;46.95
40954;BME280;26686;50.130;8.710;2024-03-23T10:20:26;99619.94;;;13.92;43.30
40954;BME280;26686;50.130;8.710;2024-03-23T10:25:27;99612.34;;;14.30;41.24
40954;BME280;26686;50.130;8.710;2024-03-23T10:30:28;99564.38;;;15.11;39.92
40954;BME280;26686;50.130;8.710;2024-03-23T10:35:28;99573.91;;;15.30;38.92
40954;BME280;26686;50.130;8.710;2024-03-23T10:40:29;99574.44;;;14.60;39.31
40954;BME280;26686;50.130;8.710;2024-03-23T10:45:30;99556.81;;;14.32;39.49
40954;BME280;26686;50.130;8.710;2024-03-23T10:50:30;99579.94;;;13.83;41.26
40954;BME280;26686;50.130;8.710;2024-03-23T10:55:36;99590.09;;;13.44;41.38
40954;BME280;26686;50.130;8.710;2024-03-23T11:00:36;99603.81;;;12.79;42.37
40954;BME280;26686;50.130;8.710;2024-03-23T11:05:37;99652.72;;;11.68;47.35
40954;BME280;26686;50.130;8.710;2024-03-23T11:10:37;99657.75;;;10.75;55.81
40954;BME280;26686;50.130;8.710;2024-03-23T11:15:38;99620.44;;;11.24;58.63
40954;BME280;26686;50.130;8.710;2024-03-23T11:20:38;99627.47;;;11.73;55.66
40954;BME280;26686;50.130;8.710;2024-03-23T11:25:39;99630.28;;;11.61;57.84
40954;BME280;26686;50.130;8.710;2024-03-23T11:30:40;99628.81;;;11.87;54.80
40954;BME280;26686;50.130;8.710;2024-03-23T11:35:40;99638.00;;;11.64;50.22
40954;BME280;26686;50.130;8.710;2024-03-23T11:40:43;99634.91;;;10.92;51.10
40954;BME280;26686;50.130;8.710;2024-03-23T11:45:45;99613.22;;;10.68;52.58
40954;BME280;26686;50.130;8.710;2024-03-23T11:50:48;99617.97;;;10.93;52.90
40954;BME280;26686;50.130;8.710;2024-03-23T11:55:56;99613.19;;;10.48;53.73
40954;BME280;26686;50.130;8.710;2024-03-23T12:00:59;99593.03;;;11.42;52.04
40954;BME280;26686;50.130;8.710;2024-03-23T12:06:00;99581.50;;;14.85;44.40
40954;BME280;26686;50.130;8.710;2024-03-23T12:11:12;99571.28;;;16.87;39.59
40954;BME280;26686;50.130;8.710;2024-03-23T12:16:19;99556.19;;;18.20;37.09
40954;BME280;26686;50.130;8.710;2024-03-23T12:21:20;99544.41;;;19.43;34.24
40954;BME280;26686;50.130;8.710;2024-03-23T12:26:22;99535.84;;;20.23;32.32
40954;BME280;26686;50.130;8.710;2024-03-23T12:31:24;99526.41;;;21.86;30.35
40954;BME280;26686;50.130;8.710;2024-03-23T12:36:25;99515.91;;;23.91;27.24
40954;BME280;26686;50.130;8.710;2024-03-23T12:41:25;99517.00;;;27.41;23.34
40954;BME280;26686;50.130;8.710;2024-03-23T12:46:26;99505.91;;;25.47;23.43
40954;BME280;26686;50.130;8.710;2024-03-23T12:51:26;99500.13;;;28.43;21.12
40954;BME280;26686;50.130;8.710;2024-03-23T12:56:27;99488.53;;;24.89;22.42
40954;BME280;26686;50.130;8.710;2024-03-23T13:01:32;99498.25;;;20.41;27.72
40954;BME280;26686;50.130;8.710;2024-03-23T13:06:33;99496.88;;;17.62;32.43
40954;BME280;26686;50.130;8.710;2024-03-23T13:11:35;99504.06;;;16.49;34.89
40954;BME280;26686;50.130;8.710;2024-03-23T13:16:36;99479.72;;;15.25;36.34
40954;BME280;26686;50.130;8.710;2024-03-23T13:21:36;99562.16;;;13.73;42.21
40954;BME280;26686;50.130;8.710;2024-03-23T13:26:37;99589.28;;;11.35;53.64
40954;BME280;26686;50.130;8.710;2024-03-23T13:31:37;99609.06;;;10.24;59.06
40954;BME280;26686;50.130;8.710;2024-03-23T13:36:39;99624.53;;;10.40;60.63
40954;BME280;26686;50.130;8.710;2024-03-23T13:41:44;99625.63;;;11.16;59.62
40954;BME280;26686;50.130;8.710;2024-03-23T13:46:45;99626.25;;;11.95;57.84
40954;BME280;26686;50.130;8.710;2024-03-23T13:51:47;99619.13;;;12.95;54.50
40954;BME280;26686;50.130;8.710;2024-03-23T13:56:52;99598.69;;;13.91;51.54
40954;BME280;26686;50.130;8.710;2024-03-23T14:01:54;99590.19;;;14.88;47.16
40954;BME280;26686;50.130;8.710;2024-03-23T14:06:55;99579.78;;;15.17;47.95
40954;BME280;26686;50.130;8.710;2024-03-23T14:11:55;99588.78;;;15.41;47.64
40954;BME280;26686;50.130;8.710;2024-03-23T14:16:56;99586.97;;;15.25;43.90
40954;BME280;26686;50.130;8.710;2024-03-23T14:21:56;99589.34;;;15.20;45.95
40954;BME280;26686;50.130;8.710;2024-03-23T14:26:57;99579.63;;;14.86;44.91
40954;BME280;26686;50.130;8.710;2024-03-23T14:31:57;99546.22;;;13.98;46.06
40954;BME280;26686;50.130;8.710;2024-03-23T14:36:57;99554.44;;;14.13;47.15
40954;BME280;26686;50.130;8.710;2024-03-23T14:41:59;99555.28;;;14.13;48.00
40954;BME280;26686;50.130;8.710;2024-03-23T14:46:59;99558.16;;;13.69;45.87
40954;BME280;26686;50.130;8.710;2024-03-23T14:52:00;99560.84;;;13.43;46.59
40954;BME280;26686;50.130;8.710;2024-03-23T14:57:01;99551.34;;;13.22;46.83
40954;BME280;26686;50.130;8.710;2024-03-23T15:02:02;99554.47;;;13.18;47.42
40954;BME280;26686;50.130;8.710;2024-03-23T15:07:03;99531.03;;;13.03;47.56
40954;BME280;26686;50.130;8.710;2024-03-23T15:12:04;99524.94;;;12.93;46.62
40954;BME280;26686;50.130;8.710;2024-03-23T15:17:05;99527.19;;;13.06;46.91
40954;BME280;26686;50.130;8.710;2024-03-23T15:22:09;99519.59;;;12.93;45.42
40954;BME280;26686;50.130;8.710;2024-03-23T15:27:11;99520.44;;;12.67;45.85
40954;BME280;26686;50.130;8.710;2024-03-23T15:32:11;99486.38;;;12.43;47.43
40954;BME280;26686;50.130;8.710;2024-03-23T15:37:11;99486.13;;;12.36;47.33
40954;BME280;26686;50.130;8.710;2024-03-23T15:42:12;99476.38;;;12.27;47.51
40954;BME280;26686;50.130;8.710;2024-03-23T15:47:12;99521.59;;;12.29;47.41
40954;BME280;26686;50.130;8.710;2024-03-23T15:52:13;99574.06;;;10.19;56.61
40954;BME280;26686;50.130;8.710;2024-03-23T15:57:13;99544.34;;;9.95;58.34
40954;BME280;26686;50.130;8.710;2024-03-23T16:02:14;99524.22;;;10.21;58.79
40954;BME280;26686;50.130;8.710;2024-03-23T16:07:15;99521.22;;;9.35;60.92
40954;BME280;26686;50.130;8.710;2024-03-23T16:12:15;99493.53;;;9.78;63.26
40954;BME280;26686;50.130;8.710;2024-03-23T16:17:16;99477.19;;;10.12;59.08
40954;BME280;26686;50.130;8.710;2024-03-23T16:22:16;99467.94;;;10.16;57.68
40954;BME280;26686;50.130;8.710;2024-03-23T16:27:17;99477.47;;;10.19;59.12
40954;BME280;26686;50.130;8.710;2024-03-23T16:32:18;99477.19;;;10.32;57.15
40954;BME280;26686;50.130;8.710;2024-03-23T16:37:19;99479.00;;;10.21;58.14
40954;BME280;26686;50.130;8.710;2024-03-23T16:42:19;99472.16;;;10.29;57.29
40954;BME280;26686;50.130;8.710;2024-03-23T16:47:21;99484.31;;;10.31;58.27
40954;BME280;26686;50.130;8.710;2024-03-23T16:52:22;99482.34;;;10.23;56.75
40954;BME280;26686;50.130;8.710;2024-03-23T16:57:22;99483.34;;;10.32;57.74
40954;BME280;26686;50.130;8.710;2024-03-23T17:02:23;99490.63;;;10.30;59.42
40954;BME280;26686;50.130;8.710;2024-03-23T17:07:23;99484.72;;;10.07;56.37
40954;BME280;26686;50.130;8.710;2024-03-23T17:12:24;99488.94;;;10.00;57.87
40954;BME280;26686;50.130;8.710;2024-03-23T17:17:26;99492.56;;;9.99;57.05
40954;BME280;26686;50.130;8.710;2024-03-23T17:22:27;99480.69;;;9.83;56.83
40954;BME280;26686;50.130;8.710;2024-03-23T17:27:27;99467.91;;;9.77;57.75
40954;BME280;26686;50.130;8.710;2024-03-23T17:32:30;99483.06;;;9.86;59.10
40954;BME280;26686;50.130;8.710;2024-03-23T17:37:31;99495.03;;;9.71;56.27
40954;BME280;26686;50.130;8.710;2024-03-23T17:42:32;99481.44;;;9.54;56.69
40954;BME280;26686;50.130;8.710;2024-03-23T17:47:36;99490.84;;;9.68;58.72
40954;BME280;26686;50.130;8.710;2024-03-23T17:52:37;99566.25;;;9.15;60.23
40954;BME280;26686;50.130;8.710;2024-03-23T17:57:37;99556.81;;;7.72;67.22
40954;BME280;26686;50.130;8.710;2024-03-23T18:02:38;99541.41;;;7.32;72.57
40954;BME280;26686;50.130;8.710;2024-03-23T18:07:38;99546.81;;;7.53;71.35
40954;BME280;26686;50.130;8.710;2024-03-23T18:12:39;99536.50;;;8.05;69.78
40954;BME280;26686;50.130;8.710;2024-03-23T18:17:41;99520.28;;;8.30;67.26
40954;BME280;26686;50.130;8.710;2024-03-23T18:22:41;99530.13;;;8.40;67.97
40954;BME280;26686;50.130;8.710;2024-03-23T18:27:43;99527.56;;;8.71;68.92
40954;BME280;26686;50.130;8.710;2024-03-23T18:32:43;99527.34;;;8.74;66.17
40954;BME280;26686;50.130;8.710;2024-03-23T18:37:43;99511.59;;;8.61;69.62
40954;BME280;26686;50.130;8.710;2024-03-23T18:42:44;99541.69;;;8.71;67.88
40954;BME280;26686;50.130;8.710;2024-03-23T18:47:46;99543.63;;;8.69;67.84
40954;BME280;26686;50.130;8.710;2024-03-23T18:52:47;99555.63;;;8.84;67.75
40954;BME280;26686;50.130;8.710;2024-03-23T18:57:48;99557.53;;;8.82;65.56
40954;BME280;26686;50.130;8.710;2024-03-23T19:02:48;99554.69;;;8.74;64.57
40954;BME280;26686;50.130;8.710;2024-03-23T19:07:48;99551.25;;;8.62;64.06
40954;BME280;26686;50.130;8.710;2024-03-23T19:12:49;99561.59;;;8.44;63.66
40954;BME280;26686;50.130;8.710;2024-03-23T19:17:50;99550.16;;;8.32;64.80
40954;BME280;26686;50.130;8.710;2024-03-23T19:22:50;99557.97;;;8.34;64.95
40954;BME280;26686;50.130;8.710;2024-03-23T19:27:51;99550.97;;;8.33;65.54
40954;BME280;26686;50.130;8.710;2024-03-23T19:32:51;99563.03;;;8.37;65.95
40954;BME280;26686;50.130;8.710;2024-03-23T19:37:53;99545.72;;;8.22;64.22
40954;BME280;26686;50.130;8.710;2024-03-23T19:42:53;99540.13;;;8.04;65.00
40954;BME280;26686;50.130;8.710;2024-03-23T19:47:54;99534.13;;;7.90;64.96
40954;BME280;26686;50.130;8.710;2024-03-23T19:52:54;99529.19;;;7.86;66.23
40954;BME280;26686;50.130;8.710;2024-03-23T19:57:55;99538.34;;;7.93;66.68
40954;BME280;26686;50.130;8.710;2024-03-23T20:02:55;99541.44;;;7.98;66.35
40954;BME280;26686;50.130;8.710;2024-03-23T20:07:58;99532.56;;;7.88;66.68
40954;BME280;26686;50.130;8.710;2024-03-23T20:13:00;99511.28;;;7.67;67.33
40954;BME280;26686;50.130;8.710;2024-03-23T20:18:03;99506.16;;;7.42;68.47
40954;BME280;26686;50.130;8.710;2024-03-23T20:23:03;99508.78;;;7.42;69.38
40954;BME280;26686;50.130;8.710;2024-03-23T20:28:04;99515.91;;;7.31;70.13
40954;BME280;26686;50.130;8.710;2024-03-23T20:33:04;99514.34;;;7.17;71.49
40954;BME280;26686;50.130;8.710;2024-03-23T20:38:04;99509.63;;;7.20;71.52
40954;BME280;26686;50.130;8.710;2024-03-23T20:43:09;99504.22;;;6.99;72.75
40954;BME280;26686;50.130;8.710;2024-03-23T20:48:09;99492.56;;;6.90;71.84
40954;BME280;26686;50.130;8.710;2024-03-23T20:53:10;99505.66;;;6.92;72.85
40954;BME280;26686;50.130;8.710;2024-03-23T20:58:11;99505.88;;;6.89;72.22
40954;BME280;26686;50.130;8.710;2024-03-23T21:03:11;99513.94;;;6.87;71.99
40954;BME280;26686;50.130;8.710;2024-03-23T21:08:12;99509.13;;;6.81;72.12
40954;BME280;26686;50.130;8.710;2024-03-23T21:13:13;99513.59;;;7.03;72.00
40954;BME280;26686;50.130;8.710;2024-03-23T21:18:15;99507.22;;;6.95;71.93
40954;BME280;26686;50.130;8.710;2024-03-23T21:23:16;99508.78;;;6.97;72.48
40954;BME280;26686;50.130;8.710;2024-03-23T21:28:16;99514.66;;;6.78;73.32
40954;BME280;26686;50.130;8.710;2024-03-23T21:33:18;99509.63;;;6.86;73.26
40954;BME280;26686;50.130;8.710;2024-03-23T21:38:19;99499.94;;;6.63;74.21
40954;BME280;26686;50.130;8.710;2024-03-23T21:43:19;99501.00;;;6.60;74.75
40954;BME280;26686;50.130;8.710;2024-03-23T21:48:20;99500.50;;;6.44;75.49
40954;BME280;26686;50.130;8.710;2024-03-23T21:53:20;99507.53;;;6.56;74.90
40954;BME280;26686;50.130;8.710;2024-03-23T21:58:25;99505.78;;;6.44;75.62
40954;BME280;26686;50.130;8.710;2024-03-23T22:03:25;99511.81;;;6.57;75.11
40954;BME280;26686;50.130;8.710;2024-03-23T22:08:26;99505.00;;;6.66;75.26
40954;BME280;26686;50.130;8.710;2024-03-23T22:13:26;99468.56;;;6.58;74.10
40954;BME280;26686;50.130;8.710;2024-03-23T22:18:27;99492.41;;;6.81;74.39
40954;BME280;26686;50.130;8.710;2024-03-23T22:23:28;99487.94;;;6.81;74.56
40954;BME280;26686;50.130;8.710;2024-03-23T22:28:29;99462.09;;;6.62;74.80
40954;BME280;26686;50.130;8.710;2024-03-23T22:33:31;99467.38;;;6.62;74.77
40954;BME280;26686;50.130;8.710;2024-03-23T22:38:32;99460.28;;;6.63;74.92
40954;BME280;26686;50.130;8.710;2024-03-23T22:43:33;99456.56;;;6.65;75.38
40954;BME280;26686;50.130;8.710;2024-03-23T22:48:34;99434.44;;;6.55;75.20
40954;BME280;26686;50.130;8.710;2024-03-23T22:53:35;99449.09;;;6.70;75.55
40954;BME280;26686;50.130;8.710;2024-03-23T22:58:36;99450.91;;;6.81;74.69
40954;BME280;26686;50.130;8.710;2024-03-23T23:03:36;99435.88;;;6.59;75.22
40954;BME280;26686;50.130;8.710;2024-03-23T23:08:37;99435.66;;;6.62;75.93
40954;BME280;26686;50.130;8.710;2024-03-23T23:13:38;99431.66;;;6.68;75.94
40954;BME280;26686;50.130;8.710;2024-03-23T23:18:39;99430.00;;;6.78;75.64
40954;BME280;26686;50.130;8.710;2024-03-23T23:23:39;99423.88;;;6.78;75.39
40954;BME280;26686;50.130;8.710;2024-03-23T23:28:40;99405.34;;;6.89;74.86
40954;BME280;26686;50.130;8.710;2024-03-23T23:33:40;99401.97;;;6.87;74.69
40954;BME280;26686;50.130;8.710;2024-03-23T23:38:47;99395.50;;;6.80;75.19
40954;BME280;26686;50.130;8.710;2024-03-23T23:43:54;99392.97;;;6.78;75.81
40954;BME280;26686;50.130;8.710;2024-03-23T23:48:56;99376.34;;;6.87;75.26
40954;BME280;26686;50.130;8.710;2024-03-23T23:53:57;99391.78;;;6.82;75.02
40954;BME280;26686;50.130;8.710;2024-03-23T23:58:57;99389.72;;;6.75;75.79
